Time;durP1;ratioP1;P1;durP2;ratioP2;P2;SDS_P1;SDS_P2;PMS_P1;PMS_P2;Temp;Humidity;BMP_temperature;BMP_pressure;BME280_temperature;BME280_humidity;BME280_pressure;Samples;Min_cycle;Max_cycle;Signal;HPM_P1;HPM_P2
2023/04/05 00:00:49;;;;;;;2.70;2.50;;;;;;;16.85;46.92;99358.61;103868;1267;62489;-63
2023/04/05 00:03:18;;;;;;;2.60;2.40;;;;;;;16.89;46.21;99357.27;103797;1267;61171;-65
2023/04/05 00:05:48;;;;;;;2.50;2.30;;;;;;;16.81;46.27;99364.22;103916;1269;73686;-64
2023/04/05 00:08:22;;;;;;;2.90;2.70;;;;;;;16.71;46.63;99374.59;103477;1280;70076;-63
2023/04/05 00:10:52;;;;;;;2.60;2.40;;;;;;;16.79;46.84;99374.80;103580;1282;381423;-64
2023/04/05 00:13:20;;;;;;;2.30;2.10;;;;;;;16.86;46.32;99368.85;103843;1266;61587;-64
2023/04/05 00:15:50;;;;;;;2.70;2.50;;;;;;;16.88;46.18;99358.21;104490;1252;60508;-64
2023/04/05 00:18:22;;;;;;;2.80;2.40;;;;;;;16.87;46.18;99352.59;104469;1256;73764;-64
2023/04/05 00:20:51;;;;;;;2.50;2.30;;;;;;;16.72;46.06;99334.38;104524;1251;70563;-64
2023/04/05 00:23:21;;;;;;;2.80;2.60;;;;;;;16.63;45.95;99322.45;104323;1251;73640;-64
2023/04/05 00:25:50;;;;;;;2.50;2.30;;;;;;;16.50;46.39;99319.02;104349;1251;62089;-63
2023/04/05 00:28:19;;;;;;;2.30;2.20;;;;;;;16.38;47.03;99316.73;104346;1266;60892;-64
2023/04/05 00:30:47;;;;;;;2.70;2.50;;;;;;;16.36;46.62;99312.94;104426;1256;74091;-67
2023/04/05 00:33:16;;;;;;;2.70;2.50;;;;;;;16.42;46.93;99313.76;104343;1251;69974;-64
2023/04/05 00:35:45;;;;;;;2.00;1.90;;;;;;;16.50;46.92;99315.29;104433;1264;73184;-64
2023/04/05 00:38:14;;;;;;;2.50;2.30;;;;;;;16.45;46.72;99315.81;104333;1256;62389;-64
2023/04/05 00:40:43;;;;;;;2.70;2.50;;;;;;;16.30;46.87;99310.50;104261;1259;60695;-61
2023/04/05 00:43:14;;;;;;;2.60;2.40;;;;;;;16.32;46.69;99304.92;104305;1257;74522;-65
2023/04/05 00:45:43;;;;;;;2.20;2.10;;;;;;;16.27;46.64;99301.40;104382;1251;70480;-65
2023/04/05 00:48:13;;;;;;;2.30;2.10;;;;;;;16.20;47.05;99296.23;104334;1257;74113;-65
2023/04/05 00:50:42;;;;;;;1.80;1.70;;;;;;;16.29;47.48;99294.84;104286;1257;61876;-63
2023/04/05 00:53:14;;;;;;;2.00;1.90;;;;;;;16.21;47.47;99297.96;104426;1267;60704;-64
2023/04/05 00:55:47;;;;;;;1.70;1.60;;;;;;;16.20;47.67;99302.23;104442;1260;73783;-65
2023/04/05 00:58:18;;;;;;;2.00;1.90;;;;;;;16.26;47.21;99308.73;104434;1253;70477;-66
2023/04/05 01:01:05;;;;;;;1.80;1.70;;;;;;;16.36;47.38;99310.61;104322;1263;73572;-67
2023/04/05 01:03:35;;;;;;;1.80;1.70;;;;;;;16.52;46.93;99309.70;104340;1256;62792;-66
2023/04/05 01:06:30;;;;;;;1.80;1.70;;;;;;;16.60;46.71;99308.34;104307;1256;60764;-66
2023/04/05 01:09:13;;;;;;;1.60;1.40;;;;;;;16.62;46.88;99302.75;104398;1256;73864;-68
2023/04/05 01:11:42;;;;;;;1.60;1.50;;;;;;;16.64;46.37;99302.79;104301;1260;70565;-66
2023/04/05 01:14:10;;;;;;;1.60;1.50;;;;;;;16.58;46.60;99301.75;104341;1255;72660;-65
2023/04/05 01:16:39;;;;;;;1.60;1.50;;;;;;;16.52;46.82;99303.51;104359;1251;61447;-65
2023/04/05 01:19:08;;;;;;;2.70;1.60;;;;;;;16.38;46.86;99306.79;104209;1254;60770;-65
2023/04/05 01:22:30;;;;;;;1.60;1.50;;;;;;;16.36;46.93;99303.71;104344;1266;74034;-65
2023/04/05 01:25:11;;;;;;;1.40;1.20;;;;;;;16.43;47.03;99294.22;104102;1256;71262;-65
2023/04/05 01:27:54;;;;;;;1.30;1.20;;;;;;;16.42;46.62;99290.75;104321;1257;72850;-66
2023/04/05 01:30:29;;;;;;;1.60;1.50;;;;;;;16.47;46.59;99284.55;104273;1274;61676;-66
2023/04/05 01:33:18;;;;;;;1.50;1.40;;;;;;;16.47;46.47;99272.38;104371;1260;61009;-66
2023/04/05 01:36:05;;;;;;;1.30;1.10;;;;;;;16.36;46.60;99264.09;104335;1255;74699;-65
2023/04/05 01:38:37;;;;;;;1.20;1.10;;;;;;;16.26;46.82;99257.03;104293;1267;70452;-66
2023/04/05 01:41:06;;;;;;;1.50;1.40;;;;;;;16.26;46.66;99256.70;104460;1257;73878;-65
2023/04/05 01:43:36;;;;;;;1.30;1.30;;;;;;;16.22;46.53;99256.80;104295;1251;61684;-65
2023/04/05 01:46:05;;;;;;;1.50;1.40;;;;;;;16.11;46.85;99254.58;104267;1251;60868;-67
2023/04/05 01:48:33;;;;;;;1.90;1.80;;;;;;;16.02;47.17;99246.22;104261;1256;73619;-66
2023/04/05 01:51:02;;;;;;;1.60;1.50;;;;;;;16.01;46.97;99241.02;104460;1251;70265;-67
2023/04/05 01:53:30;;;;;;;1.30;1.20;;;;;;;15.93;47.24;99236.98;104447;1251;72961;-66
2023/04/05 01:56:00;;;;;;;2.20;1.20;;;;;;;15.94;46.73;99232.67;104365;1263;61751;-67
2023/04/05 01:58:29;;;;;;;1.30;1.20;;;;;;;16.03;47.26;99231.66;104436;1264;60824;-67
2023/04/05 02:00:58;;;;;;;1.60;1.40;;;;;;;16.04;46.92;99228.39;104381;1251;74141;-67
2023/04/05 02:03:28;;;;;;;1.30;1.20;;;;;;;15.83;46.74;99228.66;104308;1261;71950;-67
2023/04/05 02:05:57;;;;;;;1.60;1.50;;;;;;;15.65;47.14;99234.52;104339;1256;73612;-67
2023/04/05 02:08:25;;;;;;;1.50;1.40;;;;;;;15.65;47.51;99240.13;104347;1251;62398;-66
2023/04/05 02:10:54;;;;;;;1.50;1.30;;;;;;;15.66;47.72;99234.83;104411;1256;60782;-67
2023/04/05 02:13:25;;;;;;;1.20;1.20;;;;;;;15.69;47.49;99233.91;104363;1259;73433;-66
2023/04/05 02:15:56;;;;;;;1.50;1.40;;;;;;;15.77;47.52;99232.45;104304;1265;70929;-66
2023/04/05 02:18:30;;;;;;;1.40;1.30;;;;;;;15.72;47.51;99228.55;104283;1269;73665;-68
2023/04/05 02:21:06;;;;;;;1.40;1.30;;;;;;;15.64;47.83;99233.72;104295;1254;61725;-68
2023/04/05 02:23:35;;;;;;;1.40;1.30;;;;;;;15.72;47.72;99230.15;104325;1270;61814;-67
2023/04/05 02:26:04;;;;;;;1.10;1.10;;;;;;;15.69;47.24;99231.08;104336;1251;74551;-67
2023/04/05 02:28:34;;;;;;;1.20;1.10;;;;;;;15.74;47.74;99235.82;104326;1256;71452;-68
2023/04/05 02:31:11;;;;;;;1.00;1.00;;;;;;;15.83;47.61;99241.20;104315;1253;73599;-67
2023/04/05 02:33:42;;;;;;;;;;;;;;;15.97;47.60;99239.48;104363;1252;60926;-68
2023/04/05 02:36:11;;;;;;;1.00;1.00;;;;;;;16.08;47.76;99236.63;104300;1260;60802;-67
2023/04/05 02:38:39;;;;;;;1.10;1.10;;;;;;;16.05;47.45;99240.73;104273;1267;74424;-66
2023/04/05 02:41:10;;;;;;;1.20;1.10;;;;;;;16.01;47.02;99237.83;104348;1251;69919;-67
2023/04/05 02:43:39;;;;;;;1.20;1.10;;;;;;;16.07;47.15;99231.88;104368;1251;72844;-66
2023/04/05 02:46:07;;;;;;;1.30;1.20;;;;;;;16.17;46.86;99231.72;104276;1263;61053;-67
2023/04/05 02:48:39;;;;;;;1.00;1.00;;;;;;;16.17;47.04;99230.52;104280;1257;61531;-66
2023/04/05 02:51:08;;;;;;;1.00;1.00;;;;;;;16.25;46.73;99228.65;104352;1257;73392;-63
2023/04/05 02:53:38;;;;;;;1.10;1.10;;;;;;;16.28;46.95;99228.09;104335;1257;70398;-63
2023/04/05 02:56:08;;;;;;;0.90;0.90;;;;;;;16.22;46.86;99228.70;104349;1267;73498;-64
2023/04/05 02:58:39;;;;;;;1.30;1.20;;;;;;;16.25;46.75;99228.61;104214;1260;62215;-66
2023/04/05 03:01:08;;;;;;;1.10;1.00;;;;;;;16.27;46.74;99230.83;104331;1254;60479;-65
2023/04/05 03:03:39;;;;;;;1.00;0.90;;;;;;;16.30;46.90;99228.63;104431;1259;74667;-66
2023/04/05 03:06:08;;;;;;;0.90;0.90;;;;;;;16.37;46.49;99230.41;104241;1254;69923;-65
2023/04/05 03:08:48;;;;;;;1.20;1.10;;;;;;;16.43;46.47;99235.30;104288;1266;73807;-64
2023/04/05 03:11:22;;;;;;;1.30;1.20;;;;;;;16.41;46.75;99235.48;104186;1273;61678;-65
2023/04/05 03:14:04;;;;;;;1.00;1.00;;;;;;;16.44;46.89;99231.52;104342;1264;61106;-66
2023/04/05 03:16:38;;;;;;;1.40;1.30;;;;;;;16.45;46.28;99225.48;104258;1257;73203;-65
2023/04/05 03:19:22;;;;;;;1.40;1.30;;;;;;;16.34;46.65;99227.11;104296;1270;70568;-66
2023/04/05 03:21:53;;;;;;;1.20;1.10;;;;;;;16.37;46.86;99232.88;104171;1257;73012;-65
2023/04/05 03:24:26;;;;;;;0.90;0.90;;;;;;;16.46;46.80;99240.20;104325;1257;60976;-65
2023/04/05 03:26:58;;;;;;;1.20;1.20;;;;;;;16.47;46.72;99239.79;104416;1257;61509;-66
2023/04/05 03:29:27;;;;;;;1.60;1.20;;;;;;;16.55;46.49;99232.52;104278;1260;73466;-68
2023/04/05 03:31:58;;;;;;;1.00;1.00;;;;;;;16.44;46.33;99226.20;104333;1273;69900;-67
2023/04/05 03:34:27;;;;;;;1.00;1.00;;;;;;;16.45;46.41;99227.77;104786;1252;73489;-67
2023/04/05 03:36:58;;;;;;;1.20;1.10;;;;;;;16.47;46.48;99230.23;104410;1257;61500;-66
2023/04/05 03:39:33;;;;;;;1.10;1.10;;;;;;;16.50;46.68;99225.59;104428;1256;60488;-67
2023/04/05 03:42:03;;;;;;;1.60;1.10;;;;;;;16.52;46.34;99222.95;104422;1260;73829;-67
2023/04/05 03:44:31;;;;;;;1.40;1.30;;;;;;;16.56;46.63;99226.92;104332;1257;69962;-66
2023/04/05 03:47:00;;;;;;;1.60;1.20;;;;;;;16.73;46.38;99225.84;104322;1256;72957;-67
2023/04/05 03:49:30;;;;;;;1.30;1.20;;;;;;;16.81;46.15;99226.16;104277;1275;61830;-66
2023/04/05 03:51:59;;;;;;;1.40;1.30;;;;;;;16.78;46.06;99222.98;104368;1256;60580;-67
2023/04/05 03:54:28;;;;;;;1.70;1.60;;;;;;;16.80;46.12;99217.21;104446;1257;73452;-66
2023/04/05 03:56:58;;;;;;;1.40;1.30;;;;;;;16.69;46.13;99217.11;104344;1256;72280;-66
2023/04/05 03:59:28;;;;;;;1.40;1.30;;;;;;;16.74;46.09;99217.05;104419;1251;74268;-67
2023/04/05 04:01:57;;;;;;;1.40;1.30;;;;;;;16.81;46.39;99212.73;104232;1272;60981;-66
2023/04/05 04:04:28;;;;;;;1.40;1.30;;;;;;;16.82;46.29;99218.27;104606;1251;61647;-65
2023/04/05 04:06:57;;;;;;;1.20;1.10;;;;;;;16.83;45.99;99215.02;104327;1256;73810;-64
2023/04/05 04:09:30;;;;;;;0.90;0.90;;;;;;;16.87;46.08;99211.19;104403;1255;71268;-64
2023/04/05 04:12:05;;;;;;;;;;;;;;;16.94;46.16;99212.56;104535;1251;74348;-65
2023/04/05 04:14:39;;;;;;;1.50;1.40;;;;;;;16.98;45.76;99207.13;104348;1257;62472;-64
2023/04/05 04:17:38;;;;;;;1.10;1.00;;;;;;;16.84;46.18;99213.39;104040;1272;61647;-64
2023/04/05 04:20:19;;;;;;;1.00;1.00;;;;;;;16.83;46.09;99214.65;108230;1251;74760;-65
2023/04/05 04:23:27;;;;;;;;;;;;;;;16.98;46.01;99211.27;108158;1251;72177;-63
2023/04/05 04:26:01;;;;;;;0.80;0.80;;;;;;;17.05;45.84;99204.70;108578;1251;73624;-66
2023/04/05 04:29:00;;;;;;;1.30;0.90;;;;;;;17.09;45.91;99202.10;108355;1251;61684;-63
2023/04/05 04:31:44;;;;;;;0.70;0.70;;;;;;;17.05;45.93;99198.85;105962;1257;61754;-64
2023/04/05 04:34:33;;;;;;;0.70;0.70;;;;;;;17.03;45.85;99200.76;104475;1257;74206;-64
2023/04/05 04:37:37;;;;;;;1.30;1.20;;;;;;;17.01;45.66;99203.02;103970;1262;71087;-65
2023/04/05 04:40:49;;;;;;;1.30;1.20;;;;;;;16.91;45.97;99206.10;104105;1263;73977;-65
2023/04/05 04:43:49;;;;;;;1.00;1.00;;;;;;;16.86;46.11;99210.23;104366;1251;62313;-66
2023/04/05 04:46:44;;;;;;;1.10;1.00;;;;;;;16.96;45.74;99205.73;104191;1252;61669;-66
2023/04/05 04:49:35;;;;;;;1.10;1.10;;;;;;;17.00;45.83;99202.99;104284;1257;74499;-65
2023/04/05 04:52:05;;;;;;;0.80;0.80;;;;;;;16.93;45.74;99199.75;104491;1258;69888;-62
2023/04/05 04:54:34;;;;;;;1.20;1.10;;;;;;;16.91;46.05;99202.73;104433;1257;73091;-60
2023/04/05 04:57:04;;;;;;;1.00;1.00;;;;;;;16.98;46.20;99208.38;104308;1257;61710;-62
2023/04/05 04:59:32;;;;;;;1.60;1.50;;;;;;;16.97;45.78;99211.17;104348;1252;61560;-61
2023/04/05 05:02:09;;;;;;;1.00;1.00;;;;;;;16.96;45.95;99212.26;104389;1257;74639;-61
2023/04/05 05:04:40;;;;;;;0.80;0.80;;;;;;;16.99;46.16;99210.43;104344;1269;71051;-62
2023/04/05 05:07:09;;;;;;;1.20;1.10;;;;;;;16.99;46.32;99207.29;104304;1260;74026;-62
2023/04/05 05:09:38;;;;;;;1.30;1.20;;;;;;;16.92;45.85;99197.92;104408;1255;61682;-61
2023/04/05 05:12:12;;;;;;;1.70;1.20;;;;;;;16.75;46.16;99192.77;104524;1256;61611;-62
2023/04/05 05:14:40;;;;;;;1.30;1.10;;;;;;;16.75;46.55;99188.52;104502;1257;74562;-61
2023/04/05 05:17:09;;;;;;;2.30;0.90;;;;;;;16.67;46.61;99184.73;104302;1258;70546;-62
2023/04/05 05:19:38;;;;;;;1.30;1.20;;;;;;;16.71;47.11;99185.45;104506;1257;73229;-63
2023/04/05 05:22:06;;;;;;;1.30;1.20;;;;;;;16.79;46.87;99191.46;104397;1267;62520;-63
2023/04/05 05:24:39;;;;;;;0.70;0.70;;;;;;;16.86;46.96;99194.77;104362;1255;61580;-63
2023/04/05 05:27:07;;;;;;;1.40;1.30;;;;;;;16.96;46.64;99187.00;104349;1253;74651;-63
2023/04/05 05:29:38;;;;;;;1.00;1.00;;;;;;;16.95;46.27;99171.67;104358;1256;70801;-63
2023/04/05 05:32:08;;;;;;;2.60;1.20;;;;;;;16.98;46.22;99168.40;104562;1251;73248;-62
2023/04/05 05:34:38;;;;;;;1.30;1.20;;;;;;;16.94;46.46;99167.64;104298;1251;61750;-61
2023/04/05 05:37:08;;;;;;;1.50;1.10;;;;;;;16.95;46.47;99176.39;104289;1274;61703;-62
2023/04/05 05:39:36;;;;;;;1.60;1.10;;;;;;;16.82;46.41;99178.45;104426;1260;74921;-63
2023/04/05 05:42:05;;;;;;;1.00;0.90;;;;;;;16.82;46.78;99179.31;104291;1257;70838;-63
2023/04/05 05:44:34;;;;;;;1.30;1.10;;;;;;;16.93;46.54;99176.04;104589;1256;74612;-60
2023/04/05 05:47:04;;;;;;;0.80;0.80;;;;;;;17.02;46.22;99177.70;104355;1259;62142;-61
2023/04/05 05:49:33;;;;;;;1.10;1.00;;;;;;;17.06;46.39;99176.81;104429;1267;61600;-60
2023/04/05 05:52:02;;;;;;;0.90;0.90;;;;;;;17.01;46.09;99171.15;104260;1255;74964;-61
2023/04/05 05:54:31;;;;;;;1.20;0.80;;;;;;;16.92;46.29;99171.11;104437;1257;71253;-61
2023/04/05 05:57:01;;;;;;;0.90;0.90;;;;;;;16.87;46.25;99170.32;104326;1261;73596;-67
2023/04/05 05:59:29;;;;;;;1.40;1.20;;;;;;;16.76;46.19;99175.52;105292;1253;62065;-60
2023/04/05 06:01:58;;;;;;;1.10;1.00;;;;;;;16.73;46.43;99183.55;104576;1260;61678;-60
2023/04/05 06:04:27;;;;;;;1.40;1.30;;;;;;;16.59;46.48;99187.55;104382;1256;75266;-62
2023/04/05 06:06:56;;;;;;;1.10;1.00;;;;;;;16.58;46.62;99190.52;104444;1275;72125;-61
2023/04/05 06:09:29;;;;;;;2.30;1.00;;;;;;;16.58;46.91;99190.53;104340;1257;73387;-61
2023/04/05 06:11:58;;;;;;;1.30;1.00;;;;;;;16.58;46.72;99189.97;104297;1256;61589;-61
2023/04/05 06:14:28;;;;;;;1.10;1.00;;;;;;;16.55;47.08;99180.83;104283;1254;61611;-61
2023/04/05 06:17:04;;;;;;;1.20;1.10;;;;;;;16.66;46.60;99182.48;104264;1266;74724;-60
2023/04/05 06:19:34;;;;;;;0.90;0.90;;;;;;;16.68;46.20;99185.46;104436;1259;70438;-62
2023/04/05 06:22:03;;;;;;;1.30;1.10;;;;;;;16.70;46.13;99184.80;104255;1255;72929;-61
2023/04/05 06:24:31;;;;;;;0.80;0.80;;;;;;;16.65;46.36;99178.27;104221;1275;61587;-62
2023/04/05 06:27:01;;;;;;;1.30;0.90;;;;;;;16.62;46.40;99173.77;104549;1256;61814;-62
2023/04/05 06:29:31;;;;;;;0.90;0.90;;;;;;;16.64;46.47;99175.73;104322;1266;74655;-60
2023/04/05 06:32:00;;;;;;;1.50;1.00;;;;;;;16.67;46.58;99177.60;104348;1256;71202;-61
2023/04/05 06:34:29;;;;;;;1.80;1.20;;;;;;;16.72;46.08;99176.74;104505;1260;73580;-61
2023/04/05 06:36:59;;;;;;;1.20;1.00;;;;;;;16.71;46.21;99182.98;104400;1266;62377;-62
2023/04/05 06:39:28;;;;;;;1.10;1.00;;;;;;;16.61;46.26;99182.30;104595;1260;61537;-62
2023/04/05 06:41:56;;;;;;;1.50;1.10;;;;;;;16.60;46.64;99189.46;104434;1253;74580;-65
2023/04/05 06:44:26;;;;;;;1.40;1.20;;;;;;;16.53;46.74;99195.14;104359;1260;70543;-61
2023/04/05 06:46:55;;;;;;;1.50;1.40;;;;;;;16.55;46.48;99197.11;104442;1257;74133;-61
2023/04/05 06:49:23;;;;;;;1.00;0.90;;;;;;;16.59;46.58;99195.23;104931;1256;61128;-62
2023/04/05 06:51:52;;;;;;;1.20;1.10;;;;;;;16.65;46.63;99191.91;104170;1275;62315;-61
2023/04/05 06:54:22;;;;;;;1.40;1.30;;;;;;;16.56;46.84;99184.24;104405;1252;76902;-61
2023/04/05 06:56:51;;;;;;;1.30;1.20;;;;;;;16.46;46.66;99177.11;104341;1258;71794;-61
2023/04/05 06:59:20;;;;;;;1.20;1.10;;;;;;;16.34;46.82;99169.83;104270;1263;73920;-62
2023/04/05 07:01:49;;;;;;;1.40;1.30;;;;;;;16.29;47.35;99171.98;104374;1268;62374;-62
2023/04/05 07:04:18;;;;;;;2.90;1.50;;;;;;;16.24;47.37;99170.89;104365;1251;61704;-62
2023/04/05 07:06:46;;;;;;;1.30;1.20;;;;;;;16.25;47.45;99167.30;104324;1257;75895;-63
2023/04/05 07:09:20;;;;;;;2.00;1.30;;;;;;;16.33;47.22;99163.02;104562;1256;70376;-65
2023/04/05 07:11:49;;;;;;;1.30;1.20;;;;;;;16.38;47.20;99161.36;104484;1255;73115;-64
2023/04/05 07:14:18;;;;;;;1.20;1.00;;;;;;;16.50;47.10;99163.35;104660;1265;62367;-64
2023/04/05 07:16:54;;;;;;;3.00;1.40;;;;;;;16.48;47.47;99161.40;104636;1256;61603;-63
2023/04/05 07:19:22;;;;;;;1.20;1.10;;;;;;;16.44;47.72;99157.80;104514;1257;75477;-61
2023/04/05 07:21:51;;;;;;;1.40;1.40;;;;;;;16.47;47.69;99159.30;104419;1256;70600;-62
2023/04/05 07:24:20;;;;;;;1.40;1.30;;;;;;;16.50;47.91;99157.35;104615;1259;72983;-62
2023/04/05 07:26:49;;;;;;;3.00;1.30;;;;;;;16.45;47.42;99158.36;104534;1260;61583;-63
2023/04/05 07:29:22;;;;;;;1.00;1.00;;;;;;;16.28;48.55;99156.96;104924;1257;61694;-64
2023/04/05 07:31:51;;;;;;;2.80;1.40;;;;;;;16.37;48.31;99155.61;104564;1257;74577;-68
2023/04/05 07:34:20;;;;;;;1.50;1.40;;;;;;;16.43;48.13;99149.74;104920;1251;71160;-64
2023/04/05 07:36:49;;;;;;;2.00;1.80;;;;;;;16.37;48.26;99148.39;105122;1255;73454;-63
2023/04/05 07:39:18;;;;;;;1.90;1.60;;;;;;;16.34;48.62;99145.44;105079;1256;61714;-62
2023/04/05 07:41:47;;;;;;;2.40;1.60;;;;;;;16.35;48.70;99145.85;104611;1256;61629;-63
2023/04/05 07:44:16;;;;;;;1.80;1.70;;;;;;;16.37;48.41;99147.64;104815;1251;75379;-62
2023/04/05 07:46:45;;;;;;;1.50;1.40;;;;;;;16.51;48.27;99146.11;105122;1257;70501;-63
2023/04/05 07:49:16;;;;;;;1.60;1.50;;;;;;;16.67;47.97;99144.16;105185;1251;72896;-64
2023/04/05 07:51:46;;;;;;;1.80;1.70;;;;;;;16.64;47.86;99143.14;104708;1269;61582;-63
2023/04/05 07:54:15;;;;;;;1.40;1.30;;;;;;;16.69;48.23;99144.04;104538;1257;61637;-62
2023/04/05 07:56:50;;;;;;;1.30;1.20;;;;;;;16.85;47.89;99143.06;104444;1257;74836;-61
2023/04/05 07:59:20;;;;;;;2.30;1.80;;;;;;;16.92;47.73;99149.37;104331;1267;69655;-62
2023/04/05 08:01:49;;;;;;;1.50;1.40;;;;;;;16.91;47.95;99159.05;104250;1275;73262;-62
2023/04/05 08:04:19;;;;;;;1.60;1.50;;;;;;;16.98;47.80;99162.55;104346;1270;62188;-61
2023/04/05 08:06:47;;;;;;;1.30;1.30;;;;;;;17.02;47.70;99162.92;104345;1257;61676;-61
2023/04/05 08:09:16;;;;;;;1.70;1.60;;;;;;;17.07;48.16;99162.05;104323;1268;75388;-62
2023/04/05 08:11:47;;;;;;;3.50;1.70;;;;;;;17.20;48.13;99166.18;104278;1270;71264;-61
2023/04/05 08:14:19;;;;;;;1.70;1.60;;;;;;;17.34;47.44;99171.12;104394;1267;74231;-63
2023/04/05 08:16:49;;;;;;;1.50;1.40;;;;;;;17.42;47.27;99170.69;104984;1251;61781;-63
2023/04/05 08:19:18;;;;;;;1.90;1.70;;;;;;;17.42;47.29;99171.55;105103;1258;61739;-65
2023/04/05 08:21:46;;;;;;;3.30;1.50;;;;;;;17.41;47.15;99172.20;105183;1253;75778;-64
2023/04/05 08:24:15;;;;;;;1.80;1.70;;;;;;;17.34;47.43;99170.58;108343;1253;69743;-65
2023/04/05 08:26:45;;;;;;;1.80;1.50;;;;;;;17.37;47.61;99168.60;108331;1253;75276;-64
2023/04/05 08:29:14;;;;;;;1.80;1.70;;;;;;;17.35;47.56;99172.13;108123;1253;61538;-64
2023/04/05 08:31:43;;;;;;;2.00;1.80;;;;;;;17.33;47.92;99176.14;108354;1254;61109;-63
2023/04/05 08:34:11;;;;;;;1.40;1.30;;;;;;;17.38;48.25;99166.14;105448;1254;74632;-62
2023/04/05 08:36:42;;;;;;;1.80;1.70;;;;;;;17.49;48.15;99164.40;104438;1267;70336;-61
2023/04/05 08:39:10;;;;;;;2.20;2.00;;;;;;;17.60;48.10;99165.85;104945;1254;73953;-63
2023/04/05 08:41:40;;;;;;;1.80;1.70;;;;;;;17.64;47.73;99166.25;104829;1255;61743;-62
2023/04/05 08:44:09;;;;;;;2.10;1.90;;;;;;;17.64;47.89;99171.89;104662;1253;61697;-63
2023/04/05 08:46:37;;;;;;;2.10;1.90;;;;;;;17.71;47.63;99169.46;104512;1256;75148;-62
2023/04/05 08:49:07;;;;;;;1.80;1.70;;;;;;;17.74;47.61;99173.83;104818;1254;70117;-66
2023/04/05 08:51:37;;;;;;;1.80;1.70;;;;;;;17.74;47.35;99170.80;104608;1257;74449;-62
2023/04/05 08:54:06;;;;;;;2.10;2.00;;;;;;;17.73;47.52;99173.32;104689;1260;61727;-62
2023/04/05 08:56:34;;;;;;;2.20;2.00;;;;;;;17.77;47.72;99172.67;104539;1257;61701;-61
2023/04/05 08:59:06;;;;;;;2.20;2.00;;;;;;;17.89;47.36;99166.80;104627;1266;74640;-63
2023/04/05 09:01:40;;;;;;;2.60;2.40;;;;;;;17.96;47.52;99163.23;105191;1256;73277;-62
2023/04/05 09:04:22;;;;;;;2.90;2.40;;;;;;;17.89;47.31;99159.55;104845;1253;74330;-62
2023/04/05 09:06:51;;;;;;;4.00;2.50;;;;;;;17.88;47.69;99157.30;104726;1260;62427;-60
2023/04/05 09:09:20;;;;;;;2.40;2.20;;;;;;;17.92;47.30;99151.69;105020;1257;61695;-61
2023/04/05 09:11:49;;;;;;;2.70;2.50;;;;;;;17.89;47.54;99146.95;104759;1259;75300;-61
2023/04/05 09:14:18;;;;;;;2.60;2.40;;;;;;;17.87;47.83;99147.41;104841;1256;71633;-61
2023/04/05 09:16:52;;;;;;;3.80;2.90;;;;;;;17.92;47.99;99149.17;104395;1255;73569;-61
2023/04/05 09:19:21;;;;;;;2.20;2.10;;;;;;;17.99;47.74;99143.84;104328;1268;63007;-60
2023/04/05 09:21:59;;;;;;;2.50;2.30;;;;;;;17.98;48.04;99139.64;104262;1258;61587;-61
2023/04/05 09:24:38;;;;;;;2.60;2.40;;;;;;;18.01;47.63;99141.15;104402;1266;75535;-61
2023/04/05 09:27:17;;;;;;;2.50;2.30;;;;;;;17.99;47.99;99143.30;104273;1257;71061;-61
2023/04/05 09:29:49;;;;;;;3.00;2.70;;;;;;;17.89;48.03;99151.02;104258;1257;73531;-62
2023/04/05 09:32:19;;;;;;;2.90;2.70;;;;;;;17.83;48.12;99148.25;104219;1266;62653;-62
2023/04/05 09:34:48;;;;;;;5.00;2.70;;;;;;;17.86;48.34;99151.09;104337;1256;61541;-62
2023/04/05 09:37:27;;;;;;;2.40;2.20;;;;;;;17.89;48.50;99156.66;104172;1264;75487;-61
2023/04/05 09:40:03;;;;;;;2.60;2.40;;;;;;;18.01;48.12;99152.70;104492;1252;71076;-61
2023/04/05 09:42:45;;;;;;;2.00;1.80;;;;;;;17.87;48.17;99149.88;104567;1256;74256;-62
2023/04/05 09:45:15;;;;;;;3.00;2.70;;;;;;;17.77;48.45;99145.77;104500;1255;62622;-62
2023/04/05 09:47:58;;;;;;;2.40;2.20;;;;;;;17.73;48.90;99142.14;104496;1256;61617;-61
2023/04/05 09:50:28;;;;;;;2.50;2.30;;;;;;;17.71;48.84;99139.30;104660;1254;75032;-62
2023/04/05 09:53:08;;;;;;;2.70;2.50;;;;;;;17.75;48.96;99135.76;104872;1256;70315;-63
2023/04/05 09:55:38;;;;;;;2.40;2.20;;;;;;;17.78;49.76;99139.27;104662;1257;75660;-62
2023/04/05 09:58:20;;;;;;;2.40;2.20;;;;;;;17.81;49.48;99136.55;108186;1258;61357;-60
2023/04/05 10:00:52;;;;;;;3.60;2.50;;;;;;;17.81;49.37;99142.61;108490;1253;59957;-61
2023/04/05 10:03:31;;;;;;;2.10;2.00;;;;;;;17.80;50.08;99144.76;108455;1254;76360;-61
2023/04/05 10:06:00;;;;;;;3.20;2.20;;;;;;;17.94;50.10;99138.50;108445;1254;71057;-63
2023/04/05 10:08:31;;;;;;;2.00;1.90;;;;;;;18.09;50.02;99136.59;105763;1257;72832;-63
2023/04/05 10:10:59;;;;;;;2.70;2.50;;;;;;;18.10;49.61;99139.19;104587;1262;63312;-63
2023/04/05 10:13:28;;;;;;;2.70;2.50;;;;;;;18.14;49.87;99139.55;104480;1256;61704;-63
2023/04/05 10:16:00;;;;;;;2.30;2.10;;;;;;;18.26;49.98;99137.48;104599;1257;75368;-63
2023/04/05 10:18:38;;;;;;;3.20;3.00;;;;;;;18.22;49.39;99136.77;104382;1258;70276;-63
2023/04/05 10:21:11;;;;;;;2.90;2.70;;;;;;;18.29;49.26;99137.61;104336;1256;75238;-63
2023/04/05 10:23:41;;;;;;;2.40;2.20;;;;;;;18.38;49.33;99137.82;104615;1264;62634;-62
2023/04/05 10:26:16;;;;;;;2.80;2.60;;;;;;;18.39;49.14;99140.70;106110;1252;61582;-63
2023/04/05 10:28:46;;;;;;;3.40;2.30;;;;;;;18.36;49.05;99142.88;108477;1252;76087;-64
2023/04/05 10:31:43;;;;;;;2.80;2.40;;;;;;;18.21;48.91;99145.16;104956;1254;71820;-62
2023/04/05 10:34:44;;;;;;;2.30;2.10;;;;;;;18.20;49.53;99143.33;104870;1257;72839;-63
2023/04/05 10:37:47;;;;;;;2.30;2.10;;;;;;;18.35;49.86;99147.05;105489;1256;62506;-62
2023/04/05 10:40:15;;;;;;;2.10;1.90;;;;;;;18.52;49.90;99141.55;104550;1253;61692;-62
2023/04/05 10:42:44;;;;;;;2.40;2.20;;;;;;;18.42;49.05;99141.67;104377;1257;74602;-60
2023/04/05 10:45:15;;;;;;;2.90;2.70;;;;;;;18.45;49.20;99140.77;104397;1269;70302;-61
2023/04/05 10:47:58;;;;;;;2.40;2.20;;;;;;;18.50;49.00;99142.27;104444;1255;73303;-63
2023/04/05 10:50:28;;;;;;;2.60;2.40;;;;;;;18.54;49.22;99142.46;104376;1257;64438;-61
2023/04/05 10:52:58;;;;;;;2.90;2.60;;;;;;;18.58;49.18;99142.11;104532;1253;61602;-60
2023/04/05 10:55:26;;;;;;;3.00;2.80;;;;;;;18.54;49.13;99141.09;104335;1267;74740;-61
2023/04/05 10:57:55;;;;;;;2.80;2.60;;;;;;;18.51;49.85;99139.83;104201;1275;71294;-61
2023/04/05 11:00:24;;;;;;;3.60;3.30;;;;;;;18.60;49.55;99140.41;104629;1261;74032;-63
2023/04/05 11:02:54;;;;;;;2.40;2.20;;;;;;;18.53;49.33;99137.02;104743;1256;62542;-62
2023/04/05 11:05:34;;;;;;;3.20;2.90;;;;;;;18.60;49.66;99136.09;104296;1252;61697;-62
2023/04/05 11:08:05;;;;;;;4.00;3.10;;;;;;;18.66;50.20;99138.48;104509;1256;74500;-65
2023/04/05 11:10:35;;;;;;;3.40;3.20;;;;;;;18.63;50.15;99144.40;104633;1257;70416;-62
2023/04/05 11:13:06;;;;;;;3.90;3.60;;;;;;;18.62;49.66;99135.39;104509;1256;73328;-62
2023/04/05 11:15:35;;;;;;;4.40;3.40;;;;;;;18.66;49.88;99135.27;104545;1263;62927;-62
2023/04/05 11:18:14;;;;;;;4.20;3.80;;;;;;;18.71;49.98;99136.02;104301;1267;61585;-62
2023/04/05 11:20:50;;;;;;;3.40;3.10;;;;;;;18.63;50.27;99138.30;104451;1257;76437;-61
2023/04/05 11:23:19;;;;;;;3.90;3.50;;;;;;;18.67;50.27;99139.58;104707;1256;71073;-65
2023/04/05 11:25:53;;;;;;;3.20;3.00;;;;;;;18.73;50.04;99141.37;104270;1268;73397;-61
2023/04/05 11:28:30;;;;;;;4.00;3.70;;;;;;;18.72;50.19;99141.31;106189;1255;62643;-65
2023/04/05 11:31:10;;;;;;;;;;;;;;;18.70;50.24;99144.48;105255;1257;61605;-65
2023/04/05 11:33:48;;;;;;;3.60;2.90;;;;;;;18.70;49.87;99146.14;104514;1257;75085;-63
2023/04/05 11:36:51;;;;;;;3.80;3.40;;;;;;;18.64;50.22;99137.52;104697;1254;70757;-62
2023/04/05 11:39:20;;;;;;;4.00;3.70;;;;;;;18.74;50.04;99138.66;104515;1254;73550;-59
2023/04/05 11:42:07;;;;;;;3.60;3.30;;;;;;;18.80;49.98;99136.41;104383;1256;63242;-59
2023/04/05 11:44:39;;;;;;;3.80;3.50;;;;;;;18.68;50.03;99135.06;104668;1254;61605;-58
2023/04/05 11:47:08;;;;;;;3.70;3.40;;;;;;;18.73;50.05;99133.58;104443;1268;75220;-58
2023/04/05 11:49:37;;;;;;;4.60;4.20;;;;;;;18.80;49.94;99129.83;104557;1253;72388;-59
2023/04/05 11:52:13;;;;;;;3.90;3.60;;;;;;;18.84;49.96;99124.53;104415;1257;73812;-60